sensor_id;sensor_type;location;lat;lon;timestamp;pressure;altitude;pressure_sealevel;temperature
50496;BMP280;38806;51.554;5.704;2022-08-11T00:00:15;102807.53;;;15.30
50496;BMP280;38806;51.554;5.704;2022-08-11T00:02:35;102824.81;;;15.18
50496;BMP280;38806;51.554;5.704;2022-08-11T00:04:42;102736.00;;;15.27
50496;BMP280;38806;51.554;5.704;2022-08-11T00:06:45;102758.81;;;15.21
50496;BMP280;38806;51.554;5.704;2022-08-11T00:08:49;102725.81;;;15.22
50496;BMP280;38806;51.554;5.704;2022-08-11T00:10:56;102729.44;;;15.19
50496;BMP280;38806;51.554;5.704;2022-08-11T00:13:03;102699.34;;;15.17
50496;BMP280;38806;51.554;5.704;2022-08-11T00:15:04;102639.97;;;15.19
50496;BMP280;38806;51.554;5.704;2022-08-11T00:17:12;102663.03;;;15.15
50496;BMP280;38806;51.554;5.704;2022-08-11T00:19:44;102652.47;;;15.17
50496;BMP280;38806;51.554;5.704;2022-08-11T00:22:00;102699.69;;;15.10
50496;BMP280;38806;51.554;5.704;2022-08-11T00:24:02;102704.53;;;15.06
50496;BMP280;38806;51.554;5.704;2022-08-11T00:26:13;102701.13;;;14.96
50496;BMP280;38806;51.554;5.704;2022-08-11T00:28:31;102678.69;;;14.96
50496;BMP280;38806;51.554;5.704;2022-08-11T00:30:43;102688.41;;;14.88
50496;BMP280;38806;51.554;5.704;2022-08-11T00:32:53;102672.31;;;14.84
50496;BMP280;38806;51.554;5.704;2022-08-11T00:34:54;102647.19;;;14.84
50496;BMP280;38806;51.554;5.704;2022-08-11T00:37:00;102692.28;;;14.72
50496;BMP280;38806;51.554;5.704;2022-08-11T00:39:13;102648.94;;;14.72
50496;BMP280;38806;51.554;5.704;2022-08-11T00:46:15;102633.88;;;14.71
50496;BMP280;38806;51.554;5.704;2022-08-11T01:00:03;102590.03;;;14.82
50496;BMP280;38806;51.554;5.704;2022-08-11T01:13:07;102462.56;;;14.91
50496;BMP280;38806;51.554;5.704;2022-08-11T01:32:13;102582.44;;;14.23
50496;BMP280;38806;51.554;5.704;2022-08-11T01:46:45;102525.75;;;14.20
50496;BMP280;38806;51.554;5.704;2022-08-11T01:49:38;102507.91;;;14.13
50496;BMP280;38806;51.554;5.704;2022-08-11T01:52:18;102473.94;;;14.12
50496;BMP280;38806;51.554;5.704;2022-08-11T01:54:36;102441.03;;;14.28
50496;BMP280;38806;51.554;5.704;2022-08-11T01:57:19;102441.03;;;14.28
50496;BMP280;38806;51.554;5.704;2022-08-11T01:59:34;102501.47;;;14.11
50496;BMP280;38806;51.554;5.704;2022-08-11T02:09:49;102479.53;;;13.85
50496;BMP280;38806;51.554;5.704;2022-08-11T02:12:46;102479.53;;;13.85
50496;BMP280;38806;51.554;5.704;2022-08-11T02:15:19;102427.19;;;13.88
50496;BMP280;38806;51.554;5.704;2022-08-11T02:20:19;102427.31;;;13.93
50496;BMP280;38806;51.554;5.704;2022-08-11T02:23:22;102483.34;;;13.69
50496;BMP280;38806;51.554;5.704;2022-08-11T02:25:59;102410.44;;;13.75
50496;BMP280;38806;51.554;5.704;2022-08-11T02:28:23;102377.38;;;13.80
50496;BMP280;38806;51.554;5.704;2022-08-11T02:31:06;102375.88;;;13.79
50496;BMP280;38806;51.554;5.704;2022-08-11T02:33:29;102405.28;;;13.86
50496;BMP280;38806;51.554;5.704;2022-08-11T02:36:09;102405.28;;;13.86
50496;BMP280;38806;51.554;5.704;2022-08-11T02:41:03;102409.47;;;13.63
50496;BMP280;38806;51.554;5.704;2022-08-11T02:43:53;102409.47;;;13.63
50496;BMP280;38806;51.554;5.704;2022-08-11T02:46:20;102390.53;;;13.63
50496;BMP280;38806;51.554;5.704;2022-08-11T02:48:38;102367.06;;;13.69
50496;BMP280;38806;51.554;5.704;2022-08-11T02:53:31;102386.56;;;13.49
50496;BMP280;38806;51.554;5.704;2022-08-11T02:56:02;102385.94;;;13.54
50496;BMP280;38806;51.554;5.704;2022-08-11T02:58:40;102377.41;;;13.47
50496;BMP280;38806;51.554;5.704;2022-08-11T03:01:43;102358.53;;;13.37
50496;BMP280;38806;51.554;5.704;2022-08-11T03:04:11;102374.69;;;13.23
50496;BMP280;38806;51.554;5.704;2022-08-11T03:09:39;102357.88;;;13.19
50496;BMP280;38806;51.554;5.704;2022-08-11T03:12:19;102361.84;;;13.09
50496;BMP280;38806;51.554;5.704;2022-08-11T03:15:15;102357.03;;;13.03
50496;BMP280;38806;51.554;5.704;2022-08-11T03:20:45;102376.88;;;12.91
50496;BMP280;38806;51.554;5.704;2022-08-11T03:29:57;102343.59;;;12.85
50496;BMP280;38806;51.554;5.704;2022-08-11T03:32:28;102320.34;;;12.79
50496;BMP280;38806;51.554;5.704;2022-08-11T03:34:40;102362.84;;;12.69
50496;BMP280;38806;51.554;5.704;2022-08-11T03:54:50;102231.91;;;12.64
50496;BMP280;38806;51.554;5.704;2022-08-11T04:06:21;102200.16;;;12.50
50496;BMP280;38806;51.554;5.704;2022-08-11T04:16:42;102179.84;;;12.40
50496;BMP280;38806;51.554;5.704;2022-08-11T04:56:49;102096.53;;;12.57
50496;BMP280;38806;51.554;5.704;2022-08-11T05:07:06;102056.53;;;12.70
50496;BMP280;38806;51.554;5.704;2022-08-11T05:14:23;101938.59;;;13.20
50496;BMP280;38806;51.554;5.704;2022-08-11T05:16:58;101960.50;;;13.22
50496;BMP280;38806;51.554;5.704;2022-08-11T05:19:19;101970.84;;;13.24
50496;BMP280;38806;51.554;5.704;2022-08-11T05:21:41;101997.09;;;13.23
50496;BMP280;38806;51.554;5.704;2022-08-11T05:24:44;101906.81;;;13.65
50496;BMP280;38806;51.554;5.704;2022-08-11T05:27:06;101888.44;;;13.89
50496;BMP280;38806;51.554;5.704;2022-08-11T05:29:47;101972.59;;;13.77
50496;BMP280;38806;51.554;5.704;2022-08-11T05:32:16;101956.03;;;13.89
50496;BMP280;38806;51.554;5.704;2022-08-11T05:34:57;101943.00;;;14.08
50496;BMP280;38806;51.554;5.704;2022-08-11T05:37:06;101916.97;;;14.36
50496;BMP280;38806;51.554;5.704;2022-08-11T05:39:20;101970.22;;;14.45
50496;BMP280;38806;51.554;5.704;2022-08-11T05:41:58;102077.75;;;14.24
50496;BMP280;38806;51.554;5.704;2022-08-11T05:44:19;102015.72;;;14.41
50496;BMP280;38806;51.554;5.704;2022-08-11T05:46:40;102019.69;;;14.66
50496;BMP280;38806;51.554;5.704;2022-08-11T05:49:00;102091.03;;;14.63
50496;BMP280;38806;51.554;5.704;2022-08-11T05:51:21;102075.03;;;14.85
50496;BMP280;38806;51.554;5.704;2022-08-11T05:53:52;102122.31;;;14.84
50496;BMP280;38806;51.554;5.704;2022-08-11T05:56:13;102108.63;;;14.93
50496;BMP280;38806;51.554;5.704;2022-08-11T05:58:19;102118.50;;;14.96
50496;BMP280;38806;51.554;5.704;2022-08-11T06:00:20;102130.72;;;14.86
50496;BMP280;38806;51.554;5.704;2022-08-11T06:02:49;102116.59;;;15.02
50496;BMP280;38806;51.554;5.704;2022-08-11T06:04:59;102074.41;;;15.22
50496;BMP280;38806;51.554;5.704;2022-08-11T06:07:10;102175.34;;;15.11
50496;BMP280;38806;51.554;5.704;2022-08-11T06:09:12;102092.59;;;15.47
50496;BMP280;38806;51.554;5.704;2022-08-11T06:11:14;102192.25;;;15.26
50496;BMP280;38806;51.554;5.704;2022-08-11T06:13:17;102162.94;;;15.30
50496;BMP280;38806;51.554;5.704;2022-08-11T06:15:17;102173.00;;;15.24
50496;BMP280;38806;51.554;5.704;2022-08-11T06:17:43;102102.72;;;15.46
50496;BMP280;38806;51.554;5.704;2022-08-11T06:20:04;102063.41;;;15.62
50496;BMP280;38806;51.554;5.704;2022-08-11T06:22:07;102129.75;;;15.67
50496;BMP280;38806;51.554;5.704;2022-08-11T06:24:14;102079.81;;;15.85
50496;BMP280;38806;51.554;5.704;2022-08-11T06:26:15;102136.22;;;16.12
50496;BMP280;38806;51.554;5.704;2022-08-11T06:28:16;102228.53;;;16.12
50496;BMP280;38806;51.554;5.704;2022-08-11T06:30:44;102215.41;;;16.42
50496;BMP280;38806;51.554;5.704;2022-08-11T06:32:45;102315.88;;;16.42
50496;BMP280;38806;51.554;5.704;2022-08-11T06:34:57;102286.09;;;16.22
50496;BMP280;38806;51.554;5.704;2022-08-11T06:40:37;102217.47;;;16.64
50496;BMP280;38806;51.554;5.704;2022-08-11T06:43:24;102299.16;;;16.49
50496;BMP280;38806;51.554;5.704;2022-08-11T06:47:48;102336.72;;;16.99
50496;BMP280;38806;51.554;5.704;2022-08-11T06:49:49;102315.38;;;17.51
50496;BMP280;38806;51.554;5.704;2022-08-11T06:52:10;102443.88;;;17.77
50496;BMP280;38806;51.554;5.704;2022-08-11T06:54:14;102538.28;;;17.49
50496;BMP280;38806;51.554;5.704;2022-08-11T06:56:20;102435.25;;;17.84
50496;BMP280;38806;51.554;5.704;2022-08-11T06:58:40;102432.34;;;18.38
50496;BMP280;38806;51.554;5.704;2022-08-11T07:01:06;102471.00;;;18.53
50496;BMP280;38806;51.554;5.704;2022-08-11T07:03:22;102598.84;;;18.46
50496;BMP280;38806;51.554;5.704;2022-08-11T07:05:59;102491.34;;;18.69
50496;BMP280;38806;51.554;5.704;2022-08-11T07:11:00;102556.72;;;18.52
50496;BMP280;38806;51.554;5.704;2022-08-11T07:13:38;102502.66;;;18.28
50496;BMP280;38806;51.554;5.704;2022-08-11T07:16:08;102498.97;;;18.76
50496;BMP280;38806;51.554;5.704;2022-08-11T07:18:19;102531.47;;;19.02
50496;BMP280;38806;51.554;5.704;2022-08-11T07:20:51;102501.97;;;19.06
50496;BMP280;38806;51.554;5.704;2022-08-11T07:23:17;102480.63;;;18.99
50496;BMP280;38806;51.554;5.704;2022-08-11T07:25:39;102581.69;;;19.68
50496;BMP280;38806;51.554;5.704;2022-08-11T07:28:13;102619.22;;;19.39
50496;BMP280;38806;51.554;5.704;2022-08-11T07:30:47;102516.91;;;19.63
50496;BMP280;38806;51.554;5.704;2022-08-11T07:32:51;102565.06;;;19.55
50496;BMP280;38806;51.554;5.704;2022-08-11T07:35:14;102507.97;;;19.57
50496;BMP280;38806;51.554;5.704;2022-08-11T07:37:33;102485.91;;;19.60
50496;BMP280;38806;51.554;5.704;2022-08-11T07:39:35;102529.97;;;19.81
50496;BMP280;38806;51.554;5.704;2022-08-11T07:41:38;102588.00;;;20.04
50496;BMP280;38806;51.554;5.704;2022-08-11T07:43:39;102617.06;;;20.42
50496;BMP280;38806;51.554;5.704;2022-08-11T07:45:44;102639.97;;;20.39
50496;BMP280;38806;51.554;5.704;2022-08-11T07:48:04;102525.75;;;20.56
50496;BMP280;38806;51.554;5.704;2022-08-11T07:50:26;102648.31;;;20.58
50496;BMP280;38806;51.554;5.704;2022-08-11T07:52:45;102636.69;;;20.82
50496;BMP280;38806;51.554;5.704;2022-08-11T07:54:46;102616.91;;;21.00
50496;BMP280;38806;51.554;5.704;2022-08-11T07:56:46;102645.91;;;20.79
50496;BMP280;38806;51.554;5.704;2022-08-11T07:58:53;102651.91;;;21.07
50496;BMP280;38806;51.554;5.704;2022-08-11T08:01:25;102547.00;;;21.23
50496;BMP280;38806;51.554;5.704;2022-08-11T08:03:46;102616.19;;;21.67
50496;BMP280;38806;51.554;5.704;2022-08-11T08:06:05;102623.50;;;21.59
50496;BMP280;38806;51.554;5.704;2022-08-11T08:08:25;102553.53;;;21.58
50496;BMP280;38806;51.554;5.704;2022-08-11T08:10:45;102625.19;;;21.86
50496;BMP280;38806;51.554;5.704;2022-08-11T08:13:05;102600.94;;;22.09
50496;BMP280;38806;51.554;5.704;2022-08-11T08:15:26;102709.19;;;22.21
50496;BMP280;38806;51.554;5.704;2022-08-11T08:17:46;102800.34;;;22.27
50496;BMP280;38806;51.554;5.704;2022-08-11T08:19:56;102766.13;;;22.34
50496;BMP280;38806;51.554;5.704;2022-08-11T08:21:57;102771.19;;;22.05
50496;BMP280;38806;51.554;5.704;2022-08-11T08:23:58;102737.44;;;22.16
50496;BMP280;38806;51.554;5.704;2022-08-11T08:26:03;102720.09;;;22.45
50496;BMP280;38806;51.554;5.704;2022-08-11T08:28:10;102750.69;;;22.68
50496;BMP280;38806;51.554;5.704;2022-08-11T08:30:11;102697.69;;;22.92
50496;BMP280;38806;51.554;5.704;2022-08-11T08:32:49;102676.00;;;23.33
50496;BMP280;38806;51.554;5.704;2022-08-11T08:34:52;102742.88;;;23.49
50496;BMP280;38806;51.554;5.704;2022-08-11T08:37:00;102652.22;;;23.62
50496;BMP280;38806;51.554;5.704;2022-08-11T08:39:02;102698.59;;;23.66
50496;BMP280;38806;51.554;5.704;2022-08-11T08:41:04;102540.06;;;24.15
50496;BMP280;38806;51.554;5.704;2022-08-11T08:43:08;102512.66;;;25.54
50496;BMP280;38806;51.554;5.704;2022-08-11T08:45:28;102379.03;;;27.30
50496;BMP280;38806;51.554;5.704;2022-08-11T08:47:59;102328.34;;;28.67
50496;BMP280;38806;51.554;5.704;2022-08-11T08:50:04;102445.56;;;28.79
50496;BMP280;38806;51.554;5.704;2022-08-11T08:52:55;102254.84;;;29.81
50496;BMP280;38806;51.554;5.704;2022-08-11T08:55:01;102213.47;;;30.68
50496;BMP280;38806;51.554;5.704;2022-08-11T08:57:03;102241.84;;;30.66
50496;BMP280;38806;51.554;5.704;2022-08-11T08:59:05;102239.94;;;30.69
50496;BMP280;38806;51.554;5.704;2022-08-11T09:01:06;102124.22;;;31.76
50496;BMP280;38806;51.554;5.704;2022-08-11T09:03:13;102210.44;;;32.59
50496;BMP280;38806;51.554;5.704;2022-08-11T09:05:16;102207.56;;;32.46
50496;BMP280;38806;51.554;5.704;2022-08-11T09:07:35;102284.91;;;32.22
50496;BMP280;38806;51.554;5.704;2022-08-11T09:09:49;102301.47;;;32.32
50496;BMP280;38806;51.554;5.704;2022-08-11T09:11:51;102156.59;;;33.07
50496;BMP280;38806;51.554;5.704;2022-08-11T09:13:58;102134.94;;;33.60
50496;BMP280;38806;51.554;5.704;2022-08-11T09:16:18;102124.81;;;34.10
50496;BMP280;38806;51.554;5.704;2022-08-11T09:18:21;102159.34;;;34.46
50496;BMP280;38806;51.554;5.704;2022-08-11T09:20:25;102168.22;;;34.27
50496;BMP280;38806;51.554;5.704;2022-08-11T09:22:48;102378.72;;;33.79
50496;BMP280;38806;51.554;5.704;2022-08-11T09:25:18;102176.72;;;34.89
50496;BMP280;38806;51.554;5.704;2022-08-11T09:27:45;102134.28;;;35.59
50496;BMP280;38806;51.554;5.704;2022-08-11T09:29:46;102146.63;;;36.05
50496;BMP280;38806;51.554;5.704;2022-08-11T09:31:46;102228.19;;;35.62
50496;BMP280;38806;51.554;5.704;2022-08-11T09:33:50;102242.00;;;35.74
50496;BMP280;38806;51.554;5.704;2022-08-11T09:35:59;102260.34;;;35.61
50496;BMP280;38806;51.554;5.704;2022-08-11T09:38:37;102190.50;;;36.34
50496;BMP280;38806;51.554;5.704;2022-08-11T09:41:00;102235.88;;;36.13
50496;BMP280;38806;51.554;5.704;2022-08-11T09:43:10;102284.81;;;35.45
50496;BMP280;38806;51.554;5.704;2022-08-11T09:45:52;102186.75;;;36.65
50496;BMP280;38806;51.554;5.704;2022-08-11T09:47:54;102287.09;;;35.64
50496;BMP280;38806;51.554;5.704;2022-08-11T09:49:58;102233.06;;;35.95
50496;BMP280;38806;51.554;5.704;2022-08-11T09:52:02;102288.50;;;35.65
50496;BMP280;38806;51.554;5.704;2022-08-11T09:54:25;102147.38;;;36.81
50496;BMP280;38806;51.554;5.704;2022-08-11T09:56:27;102249.16;;;36.30
50496;BMP280;38806;51.554;5.704;2022-08-11T09:58:48;102241.97;;;36.25
50496;BMP280;38806;51.554;5.704;2022-08-11T10:00:50;102153.72;;;36.44
50496;BMP280;38806;51.554;5.704;2022-08-11T10:02:51;102134.91;;;37.25
50496;BMP280;38806;51.554;5.704;2022-08-11T10:04:55;102398.03;;;36.05
50496;BMP280;38806;51.554;5.704;2022-08-11T10:07:18;102261.09;;;35.80
50496;BMP280;38806;51.554;5.704;2022-08-11T10:09:20;102183.50;;;36.90
50496;BMP280;38806;51.554;5.704;2022-08-11T10:11:42;102210.59;;;37.23
50496;BMP280;38806;51.554;5.704;2022-08-11T10:13:45;102091.66;;;37.77
50496;BMP280;38806;51.554;5.704;2022-08-11T10:16:06;102048.84;;;38.26
50496;BMP280;38806;51.554;5.704;2022-08-11T10:18:21;102263.84;;;37.21
50496;BMP280;38806;51.554;5.704;2022-08-11T10:20:53;102314.84;;;36.60
50496;BMP280;38806;51.554;5.704;2022-08-11T10:22:54;102157.81;;;37.82
50496;BMP280;38806;51.554;5.704;2022-08-11T10:25:15;102128.50;;;38.35
50496;BMP280;38806;51.554;5.704;2022-08-11T10:27:37;102228.28;;;37.91
50496;BMP280;38806;51.554;5.704;2022-08-11T10:29:44;102088.53;;;38.92
50496;BMP280;38806;51.554;5.704;2022-08-11T10:32:03;102341.47;;;36.95
50496;BMP280;38806;51.554;5.704;2022-08-11T10:34:26;102212.78;;;37.46
50496;BMP280;38806;51.554;5.704;2022-08-11T10:36:29;102171.13;;;38.04
50496;BMP280;38806;51.554;5.704;2022-08-11T10:38:30;102200.91;;;38.13
50496;BMP280;38806;51.554;5.704;2022-08-11T10:40:31;102007.41;;;39.42
50496;BMP280;38806;51.554;5.704;2022-08-11T10:42:31;102304.66;;;37.85
50496;BMP280;38806;51.554;5.704;2022-08-11T10:44:52;102047.88;;;39.59
50496;BMP280;38806;51.554;5.704;2022-08-11T10:46:53;102185.09;;;38.73
50496;BMP280;38806;51.554;5.704;2022-08-11T10:49:13;102147.16;;;38.74
50496;BMP280;38806;51.554;5.704;2022-08-11T10:51:13;102082.34;;;39.57
50496;BMP280;38806;51.554;5.704;2022-08-11T10:53:14;102113.50;;;39.65
50496;BMP280;38806;51.554;5.704;2022-08-11T10:55:35;102156.53;;;39.68
50496;BMP280;38806;51.554;5.704;2022-08-11T10:58:14;102332.59;;;37.59
50496;BMP280;38806;51.554;5.704;2022-08-11T11:00:35;102369.63;;;38.17
50496;BMP280;38806;51.554;5.704;2022-08-11T11:02:36;102114.34;;;39.40
50496;BMP280;38806;51.554;5.704;2022-08-11T11:11:13;102254.78;;;39.56
50496;BMP280;38806;51.554;5.704;2022-08-11T11:13:15;102146.94;;;39.21
50496;BMP280;38806;51.554;5.704;2022-08-11T11:15:35;102151.31;;;39.88
50496;BMP280;38806;51.554;5.704;2022-08-11T11:18:14;102166.97;;;39.63
50496;BMP280;38806;51.554;5.704;2022-08-11T11:23:00;102109.19;;;39.62
50496;BMP280;38806;51.554;5.704;2022-08-11T11:30:06;102247.53;;;38.93
50496;BMP280;38806;51.554;5.704;2022-08-11T11:37:29;102011.16;;;40.68
50496;BMP280;38806;51.554;5.704;2022-08-11T11:39:36;102064.38;;;40.88
50496;BMP280;38806;51.554;5.704;2022-08-11T11:41:36;102180.00;;;39.78
50496;BMP280;38806;51.554;5.704;2022-08-11T11:43:44;102113.09;;;40.13
50496;BMP280;38806;51.554;5.704;2022-08-11T11:45:45;102274.41;;;39.24
50496;BMP280;38806;51.554;5.704;2022-08-11T11:47:51;102444.28;;;38.00
50496;BMP280;38806;51.554;5.704;2022-08-11T11:49:54;102236.63;;;38.79
50496;BMP280;38806;51.554;5.704;2022-08-11T11:51:56;102061.53;;;40.44
50496;BMP280;38806;51.554;5.704;2022-08-11T11:53:57;102039.72;;;41.40
50496;BMP280;38806;51.554;5.704;2022-08-11T11:55:58;102054.28;;;41.74
50496;BMP280;38806;51.554;5.704;2022-08-11T11:58:00;102006.69;;;42.19
50496;BMP280;38806;51.554;5.704;2022-08-11T12:00:20;102099.50;;;41.72
50496;BMP280;38806;51.554;5.704;2022-08-11T12:02:41;102028.34;;;41.92
50496;BMP280;38806;51.554;5.704;2022-08-11T12:05:00;102238.75;;;40.91
50496;BMP280;38806;51.554;5.704;2022-08-11T12:07:02;102171.16;;;40.26
50496;BMP280;38806;51.554;5.704;2022-08-11T12:09:21;102092.31;;;41.13
50496;BMP280;38806;51.554;5.704;2022-08-11T12:11:23;102074.34;;;41.41
50496;BMP280;38806;51.554;5.704;2022-08-11T12:13:52;102047.69;;;41.54
50496;BMP280;38806;51.554;5.704;2022-08-11T12:15:53;102031.72;;;41.76
50496;BMP280;38806;51.554;5.704;2022-08-11T12:17:54;102328.88;;;39.60
50496;BMP280;38806;51.554;5.704;2022-08-11T12:19:57;102123.03;;;40.53
50496;BMP280;38806;51.554;5.704;2022-08-11T12:21:59;102039.34;;;41.66
50496;BMP280;38806;51.554;5.704;2022-08-11T12:24:20;102051.34;;;42.30
50496;BMP280;38806;51.554;5.704;2022-08-11T12:26:41;102024.78;;;42.72
50496;BMP280;38806;51.554;5.704;2022-08-11T12:28:54;102052.78;;;42.33
50496;BMP280;38806;51.554;5.704;2022-08-11T12:30:57;102082.09;;;41.96
50496;BMP280;38806;51.554;5.704;2022-08-11T12:32:57;102045.13;;;42.46
50496;BMP280;38806;51.554;5.704;2022-08-11T12:34:58;102052.41;;;41.97
50496;BMP280;38806;51.554;5.704;2022-08-11T12:37:00;102044.31;;;42.33
50496;BMP280;38806;51.554;5.704;2022-08-11T12:39:20;102155.09;;;41.58
50496;BMP280;38806;51.554;5.704;2022-08-11T12:41:53;102157.91;;;41.10
50496;BMP280;38806;51.554;5.704;2022-08-11T12:44:12;101971.50;;;42.38
50496;BMP280;38806;51.554;5.704;2022-08-11T12:46:39;102261.53;;;40.65
50496;BMP280;38806;51.554;5.704;2022-08-11T12:49:14;102076.59;;;41.02
50496;BMP280;38806;51.554;5.704;2022-08-11T12:51:53;102002.97;;;41.98
50496;BMP280;38806;51.554;5.704;2022-08-11T12:56:42;102377.69;;;39.69
50496;BMP280;38806;51.554;5.704;2022-08-11T12:59:04;101945.53;;;42.66
50496;BMP280;38806;51.554;5.704;2022-08-11T13:01:25;102120.88;;;41.38
50496;BMP280;38806;51.554;5.704;2022-08-11T13:03:44;102034.94;;;41.51
50496;BMP280;38806;51.554;5.704;2022-08-11T13:06:06;102109.81;;;41.50
50496;BMP280;38806;51.554;5.704;2022-08-11T13:08:08;101986.38;;;42.44
50496;BMP280;38806;51.554;5.704;2022-08-11T13:10:11;101964.13;;;43.13
50496;BMP280;38806;51.554;5.704;2022-08-11T13:12:13;102249.53;;;41.05
50496;BMP280;38806;51.554;5.704;2022-08-11T13:14:33;102063.28;;;41.59
50496;BMP280;38806;51.554;5.704;2022-08-11T13:16:35;102115.25;;;41.38
50496;BMP280;38806;51.554;5.704;2022-08-11T13:18:59;102052.00;;;41.59
50496;BMP280;38806;51.554;5.704;2022-08-11T13:21:01;101980.84;;;42.63
50496;BMP280;38806;51.554;5.704;2022-08-11T13:23:02;102076.28;;;42.54
50496;BMP280;38806;51.554;5.704;2022-08-11T13:25:03;102014.34;;;43.00
50496;BMP280;38806;51.554;5.704;2022-08-11T13:27:04;102105.66;;;42.17
50496;BMP280;38806;51.554;5.704;2022-08-11T13:29:04;102156.34;;;41.99
50496;BMP280;38806;51.554;5.704;2022-08-11T13:31:05;102191.03;;;40.67
50496;BMP280;38806;51.554;5.704;2022-08-11T13:33:14;102018.38;;;41.85
50496;BMP280;38806;51.554;5.704;2022-08-11T13:35:16;101968.19;;;42.72
50496;BMP280;38806;51.554;5.704;2022-08-11T13:37:36;101938.00;;;43.33
50496;BMP280;38806;51.554;5.704;2022-08-11T13:39:57;101971.38;;;43.89
50496;BMP280;38806;51.554;5.704;2022-08-11T13:42:20;102014.31;;;42.94
50496;BMP280;38806;51.554;5.704;2022-08-11T13:44:21;102046.25;;;43.13
50496;BMP280;38806;51.554;5.704;2022-08-11T13:46:41;101950.09;;;43.71
50496;BMP280;38806;51.554;5.704;2022-08-11T13:48:42;102058.25;;;43.05
50496;BMP280;38806;51.554;5.704;2022-08-11T13:50:44;102000.94;;;43.09
50496;BMP280;38806;51.554;5.704;2022-08-11T13:53:03;102023.50;;;42.93
50496;BMP280;38806;51.554;5.704;2022-08-11T13:55:05;102053.47;;;42.34
50496;BMP280;38806;51.554;5.704;2022-08-11T13:57:28;102179.34;;;40.47
50496;BMP280;38806;51.554;5.704;2022-08-11T13:59:45;102136.53;;;41.45
50496;BMP280;38806;51.554;5.704;2022-08-11T14:01:58;102159.69;;;40.51
50496;BMP280;38806;51.554;5.704;2022-08-11T14:04:10;102323.69;;;38.75
50496;BMP280;38806;51.554;5.704;2022-08-11T14:06:27;102030.47;;;40.86
50496;BMP280;38806;51.554;5.704;2022-08-11T14:08:47;102116.81;;;40.59
50496;BMP280;38806;51.554;5.704;2022-08-11T14:10:49;102079.16;;;40.44
50496;BMP280;38806;51.554;5.704;2022-08-11T14:13:15;102060.00;;;40.79
50496;BMP280;38806;51.554;5.704;2022-08-11T14:15:47;102098.88;;;40.42
50496;BMP280;38806;51.554;5.704;2022-08-11T14:18:01;102120.44;;;39.92
50496;BMP280;38806;51.554;5.704;2022-08-11T14:20:18;101964.16;;;40.85
50496;BMP280;38806;51.554;5.704;2022-08-11T14:22:56;101992.47;;;41.43
50496;BMP280;38806;51.554;5.704;2022-08-11T14:24:57;101938.28;;;42.44
50496;BMP280;38806;51.554;5.704;2022-08-11T14:27:18;101943.34;;;42.60
50496;BMP280;38806;51.554;5.704;2022-08-11T14:29:27;101907.59;;;43.43
50496;BMP280;38806;51.554;5.704;2022-08-11T14:31:38;102024.63;;;42.47
50496;BMP280;38806;51.554;5.704;2022-08-11T14:33:48;102021.13;;;42.53
50496;BMP280;38806;51.554;5.704;2022-08-11T14:35:48;101972.69;;;43.27
50496;BMP280;38806;51.554;5.704;2022-08-11T14:37:49;102125.03;;;41.80
50496;BMP280;38806;51.554;5.704;2022-08-11T14:39:57;102018.19;;;42.41
50496;BMP280;38806;51.554;5.704;2022-08-11T14:42:01;102038.34;;;42.03
50496;BMP280;38806;51.554;5.704;2022-08-11T14:44:48;102028.72;;;41.62
50496;BMP280;38806;51.554;5.704;2022-08-11T14:47:11;102073.16;;;41.58
50496;BMP280;38806;51.554;5.704;2022-08-11T14:49:15;102154.84;;;40.58
50496;BMP280;38806;51.554;5.704;2022-08-11T14:51:15;102214.41;;;39.17
50496;BMP280;38806;51.554;5.704;2022-08-11T14:53:16;102217.75;;;38.84
50496;BMP280;38806;51.554;5.704;2022-08-11T14:55:18;102134.97;;;39.21
50496;BMP280;38806;51.554;5.704;2022-08-11T14:57:58;102180.34;;;38.79
50496;BMP280;38806;51.554;5.704;2022-08-11T15:00:00;102118.53;;;39.39
50496;BMP280;38806;51.554;5.704;2022-08-11T15:02:22;102132.38;;;39.01
50496;BMP280;38806;51.554;5.704;2022-08-11T15:04:43;102100.66;;;38.99
50496;BMP280;38806;51.554;5.704;2022-08-11T15:07:25;102238.16;;;37.92
50496;BMP280;38806;51.554;5.704;2022-08-11T15:09:30;102204.06;;;37.58
50496;BMP280;38806;51.554;5.704;2022-08-11T15:11:31;102264.41;;;37.37
50496;BMP280;38806;51.554;5.704;2022-08-11T15:13:49;102163.56;;;37.43
50496;BMP280;38806;51.554;5.704;2022-08-11T15:15:50;102237.88;;;37.20
50496;BMP280;38806;51.554;5.704;2022-08-11T15:18:12;102301.25;;;36.35
50496;BMP280;38806;51.554;5.704;2022-08-11T15:20:34;102234.38;;;36.28
50496;BMP280;38806;51.554;5.704;2022-08-11T15:22:53;102239.25;;;36.27
50496;BMP280;38806;51.554;5.704;2022-08-11T15:25:13;102225.00;;;36.21
50496;BMP280;38806;51.554;5.704;2022-08-11T15:27:18;102272.44;;;35.82
50496;BMP280;38806;51.554;5.704;2022-08-11T15:29:56;102261.03;;;35.78
50496;BMP280;38806;51.554;5.704;2022-08-11T15:32:36;102291.06;;;35.28
50496;BMP280;38806;51.554;5.704;2022-08-11T15:35:14;102313.88;;;35.23
50496;BMP280;38806;51.554;5.704;2022-08-11T15:37:54;102244.66;;;35.23
50496;BMP280;38806;51.554;5.704;2022-08-11T15:42:20;102360.75;;;34.23
50496;BMP280;38806;51.554;5.704;2022-08-11T15:44:41;102320.13;;;34.20
50496;BMP280;38806;51.554;5.704;2022-08-11T15:47:02;102231.84;;;34.57
50496;BMP280;38806;51.554;5.704;2022-08-11T15:49:08;102278.63;;;34.57
50496;BMP280;38806;51.554;5.704;2022-08-11T15:51:17;102256.16;;;34.55
50496;BMP280;38806;51.554;5.704;2022-08-11T15:55:40;102118.84;;;35.58
50496;BMP280;38806;51.554;5.704;2022-08-11T15:57:43;102048.78;;;36.29
50496;BMP280;38806;51.554;5.704;2022-08-11T16:00:05;102027.88;;;36.71
50496;BMP280;38806;51.554;5.704;2022-08-11T16:02:48;102051.00;;;36.72
50496;BMP280;38806;51.554;5.704;2022-08-11T16:04:57;101933.53;;;37.99
50496;BMP280;38806;51.554;5.704;2022-08-11T16:07:08;101941.75;;;38.16
50496;BMP280;38806;51.554;5.704;2022-08-11T16:09:45;101940.66;;;38.27
50496;BMP280;38806;51.554;5.704;2022-08-11T16:11:47;101861.13;;;39.14
50496;BMP280;38806;51.554;5.704;2022-08-11T16:13:49;101811.19;;;39.92
50496;BMP280;38806;51.554;5.704;2022-08-11T16:16:16;101843.78;;;40.05